createdAt,value
2018-02-13T00:00:20.761Z,0
2018-02-13T00:01:35.448Z,0
2018-02-13T00:02:50.899Z,0
2018-02-13T00:04:05.649Z,0
2018-02-13T00:05:20.546Z,0
2018-02-13T00:06:35.425Z,0
2018-02-13T00:07:50.359Z,0
2018-02-13T00:09:05.303Z,0
2018-02-13T00:10:20.502Z,0
2018-02-13T00:11:35.240Z,0
2018-02-13T00:12:49.696Z,0
2018-02-13T00:14:03.758Z,0
2018-02-13T00:15:18.152Z,0
2018-02-13T00:16:32.566Z,0
2018-02-13T00:17:47.498Z,0
2018-02-13T00:19:02.735Z,0
2018-02-13T00:20:17.425Z,0
2018-02-13T00:21:32.145Z,0
2018-02-13T00:22:46.834Z,0
2018-02-13T00:24:02.069Z,0
2018-02-13T00:25:17.467Z,0
2018-02-13T00:26:31.508Z,0
2018-02-13T00:27:46.669Z,0
2018-02-13T00:29:01.129Z,0
2018-02-13T00:30:15.781Z,0
2018-02-13T00:31:30.999Z,0
2018-02-13T00:32:45.673Z,0
2018-02-13T00:33:59.976Z,0
2018-02-13T00:35:14.584Z,0
2018-02-13T00:36:29.085Z,0
2018-02-13T00:37:44.214Z,0
2018-02-13T00:38:58.319Z,0
2018-02-13T00:40:12.644Z,0
2018-02-13T00:41:27.539Z,0
2018-02-13T00:42:42.515Z,0
2018-02-13T00:43:57.182Z,0
2018-02-13T00:45:12.324Z,0
2018-02-13T00:46:27.197Z,0
2018-02-13T00:47:42.014Z,0
2018-02-13T00:48:57.141Z,0
2018-02-13T00:50:12.613Z,0
2018-02-13T00:51:27.491Z,0
2018-02-13T00:52:42.240Z,0
2018-02-13T00:53:57.108Z,0
2018-02-13T00:55:12.103Z,0
2018-02-13T00:56:27.240Z,0
2018-02-13T00:57:41.964Z,0
2018-02-13T00:58:56.886Z,0
2018-02-13T01:00:11.596Z,0
2018-02-13T01:01:26.468Z,0
2018-02-13T01:02:40.819Z,0
2018-02-13T01:03:55.363Z,0
2018-02-13T01:05:10.305Z,0
2018-02-13T01:06:24.657Z,0
2018-02-13T01:07:39.655Z,0
2018-02-13T01:08:54.257Z,0
2018-02-13T01:10:09.750Z,0
2018-02-13T01:11:23.779Z,0
2018-02-13T01:12:38.643Z,0
2018-02-13T01:13:53.718Z,0
2018-02-13T01:15:09.381Z,0
2018-02-13T01:16:24.016Z,0
2018-02-13T01:17:38.096Z,0
2018-02-13T01:18:53.138Z,0
2018-02-13T01:20:08.337Z,0
2018-02-13T01:21:23.495Z,0
2018-02-13T01:22:38.110Z,0
2018-02-13T01:23:52.491Z,0
2018-02-13T01:25:07.547Z,0
2018-02-13T01:26:22.114Z,0
2018-02-13T01:27:36.979Z,0
2018-02-13T01:28:51.535Z,0
2018-02-13T01:30:06.150Z,0
2018-02-13T01:31:21.297Z,0
2018-02-13T01:32:35.860Z,0
2018-02-13T01:34:03.833Z,0
2018-02-13T01:35:17.894Z,0
2018-02-13T01:36:32.472Z,0
2018-02-13T01:37:47.341Z,0
2018-02-13T01:39:02.658Z,0
2018-02-13T01:40:17.561Z,0
2018-02-13T01:41:31.013Z,0
2018-02-13T01:42:45.881Z,0
2018-02-13T01:44:00.760Z,0
2018-02-13T01:45:15.651Z,0
2018-02-13T01:46:30.869Z,0
2018-02-13T01:47:44.915Z,0
2018-02-13T01:49:00.204Z,0
2018-02-13T01:50:14.832Z,0
2018-02-13T01:51:29.398Z,0
2018-02-13T01:52:44.238Z,0
2018-02-13T01:53:58.908Z,0
2018-02-13T01:55:13.854Z,0
2018-02-13T01:56:28.432Z,0
2018-02-13T01:57:43.037Z,0
2018-02-13T01:58:57.643Z,0
2018-02-13T02:00:12.733Z,0
2018-02-13T02:01:27.343Z,0
2018-02-13T02:02:41.942Z,0
2018-02-13T02:03:56.266Z,0
2018-02-13T02:05:11.877Z,0
2018-02-13T02:06:26.733Z,0
2018-02-13T02:07:41.575Z,0
2018-02-13T02:08:56.495Z,0
2018-02-13T02:10:11.628Z,0
2018-02-13T02:11:26.756Z,0
2018-02-13T02:12:41.364Z,0
2018-02-13T02:13:56.007Z,0
2018-02-13T02:15:10.857Z,0
2018-02-13T02:16:24.940Z,0
2018-02-13T02:17:39.782Z,0
2018-02-13T02:18:54.390Z,0
2018-02-13T02:20:09.650Z,0
2018-02-13T02:21:24.858Z,0
2018-02-13T02:22:39.970Z,0
2018-02-13T02:23:55.104Z,0
2018-02-13T02:25:10.087Z,0
2018-02-13T02:26:24.419Z,0
2018-02-13T02:27:39.023Z,0
2018-02-13T02:28:53.903Z,0
2018-02-13T02:30:09.280Z,0
2018-02-13T02:31:24.474Z,0
2018-02-13T02:32:39.321Z,0
2018-02-13T02:33:54.431Z,0
2018-02-13T02:35:09.347Z,0
2018-02-13T02:36:24.773Z,0
2018-02-13T02:37:39.368Z,0
2018-02-13T02:38:54.302Z,0
2018-02-13T02:40:09.523Z,0
2018-02-13T02:41:24.431Z,0
2018-02-13T02:42:39.611Z,0
2018-02-13T02:43:54.480Z,0
2018-02-13T02:45:09.418Z,0
2018-02-13T02:46:24.024Z,0
2018-02-13T02:47:38.605Z,0
2018-02-13T02:48:53.749Z,0
2018-02-13T02:50:08.718Z,0
2018-02-13T02:51:23.038Z,0
2018-02-13T02:52:38.228Z,0
2018-02-13T02:53:53.057Z,0
2018-02-13T02:55:08.356Z,0
2018-02-13T02:56:22.691Z,0
2018-02-13T02:57:37.020Z,0
2018-02-13T02:58:51.683Z,0
2018-02-13T03:00:06.807Z,0
2018-02-13T03:01:21.835Z,0
2018-02-13T03:02:37.041Z,0
2018-02-13T03:03:51.928Z,0
2018-02-13T03:05:06.555Z,0
2018-02-13T03:06:21.482Z,0
2018-02-13T03:07:36.184Z,0
2018-02-13T03:08:50.821Z,0
2018-02-13T03:10:05.765Z,0
2018-02-13T03:11:20.961Z,0
2018-02-13T03:12:35.692Z,0
2018-02-13T03:13:50.702Z,0
2018-02-13T03:15:05.829Z,0
2018-02-13T03:16:20.020Z,0
2018-02-13T03:17:35.175Z,0
2018-02-13T03:18:50.023Z,0
2018-02-13T03:20:05.513Z,0
2018-02-13T03:21:19.629Z,0
2018-02-13T03:22:33.921Z,0
2018-02-13T03:23:48.831Z,0
2018-02-13T03:25:03.430Z,0
2018-02-13T03:26:18.552Z,0
2018-02-13T03:27:32.592Z,0
2018-02-13T03:28:46.974Z,0
2018-02-13T03:30:02.279Z,0
2018-02-13T03:31:17.551Z,0
2018-02-13T03:32:32.831Z,0
2018-02-13T03:33:48.000Z,0
2018-02-13T03:35:03.233Z,0
2018-02-13T03:36:18.135Z,0
2018-02-13T03:37:33.005Z,0
2018-02-13T03:38:48.471Z,0
2018-02-13T03:40:03.596Z,0
2018-02-13T03:41:18.395Z,0
2018-02-13T03:42:33.000Z,0
2018-02-13T03:43:48.107Z,0
2018-02-13T03:45:02.970Z,0
2018-02-13T03:46:17.844Z,0
2018-02-13T03:47:33.150Z,0
2018-02-13T03:48:47.470Z,0
2018-02-13T03:50:01.880Z,0
2018-02-13T03:51:17.350Z,0
2018-02-13T03:52:31.801Z,0
2018-02-13T03:53:46.263Z,0
2018-02-13T03:55:01.382Z,0
2018-02-13T03:56:15.974Z,0
2018-02-13T03:57:31.346Z,0
2018-02-13T03:58:45.951Z,0
2018-02-13T04:00:01.412Z,0
2018-02-13T04:01:16.422Z,0
2018-02-13T04:02:31.357Z,0
2018-02-13T04:03:46.294Z,0
2018-02-13T04:05:01.163Z,0
2018-02-13T04:06:15.236Z,0
2018-02-13T04:07:30.709Z,0
2018-02-13T04:08:45.360Z,0
2018-02-13T04:10:00.223Z,0
2018-02-13T04:11:15.377Z,0
2018-02-13T04:12:30.473Z,0
2018-02-13T04:13:45.371Z,0
2018-02-13T04:15:00.042Z,0
2018-02-13T04:16:14.729Z,0
2018-02-13T04:17:30.067Z,0
2018-02-13T04:18:44.709Z,0
2018-02-13T04:19:59.437Z,0
2018-02-13T04:21:14.090Z,0
2018-02-13T04:22:29.398Z,0
2018-02-13T04:23:44.037Z,0
2018-02-13T04:24:58.928Z,0
2018-02-13T04:26:14.095Z,0
2018-02-13T04:27:29.149Z,0
2018-02-13T04:28:44.043Z,0
2018-02-13T04:29:59.175Z,0
2018-02-13T04:31:14.296Z,0
2018-02-13T04:32:49.010Z,0
2018-02-13T04:34:04.346Z,0
2018-02-13T04:35:18.737Z,0
2018-02-13T04:36:33.649Z,0
2018-02-13T04:37:48.791Z,0
2018-02-13T04:39:03.852Z,0
2018-02-13T04:40:18.990Z,0
2018-02-13T04:41:33.938Z,0
2018-02-13T04:42:49.140Z,0
2018-02-13T04:44:03.782Z,0
2018-02-13T04:45:18.354Z,0
2018-02-13T04:46:32.981Z,0
2018-02-13T04:47:48.203Z,0
2018-02-13T04:49:03.095Z,0
2018-02-13T04:50:18.266Z,0
2018-02-13T04:51:33.159Z,0
2018-02-13T04:52:48.879Z,0
2018-02-13T04:54:04.042Z,0
2018-02-13T04:55:19.195Z,0
2018-02-13T04:56:33.272Z,0
2018-02-13T04:57:47.994Z,0
2018-02-13T04:59:03.020Z,0
2018-02-13T05:00:17.536Z,0
2018-02-13T05:01:32.398Z,0
2018-02-13T05:02:47.780Z,0
2018-02-13T05:04:02.783Z,0
2018-02-13T05:05:17.716Z,0
2018-02-13T05:06:32.603Z,0
2018-02-13T05:07:47.575Z,0
2018-02-13T05:09:02.174Z,0
2018-02-13T05:10:16.686Z,0
2018-02-13T05:11:31.931Z,0
2018-02-13T05:12:47.112Z,0
2018-02-13T05:14:01.899Z,0
2018-02-13T05:15:16.182Z,0
2018-02-13T05:16:30.531Z,0
2018-02-13T05:17:45.416Z,0
2018-02-13T05:19:00.376Z,0
2018-02-13T05:20:14.434Z,0
2018-02-13T05:21:28.826Z,0
2018-02-13T05:22:44.277Z,0
2018-02-13T05:23:59.853Z,0
2018-02-13T05:25:15.000Z,0
2018-02-13T05:26:29.340Z,0
2018-02-13T05:27:43.962Z,0
2018-02-13T05:28:59.395Z,0
2018-02-13T05:30:14.623Z,0
2018-02-13T05:31:29.469Z,0
2018-02-13T05:32:43.796Z,0
2018-02-13T05:33:58.612Z,0
2018-02-13T05:35:12.976Z,0
2018-02-13T05:36:27.618Z,0
2018-02-13T05:37:42.463Z,0
2018-02-13T05:38:57.359Z,0
2018-02-13T05:40:12.321Z,0
2018-02-13T05:41:27.008Z,0
2018-02-13T05:42:42.146Z,0
2018-02-13T05:43:57.290Z,0
2018-02-13T05:45:12.687Z,0
2018-02-13T05:46:27.320Z,0
2018-02-13T05:47:42.458Z,0
2018-02-13T05:48:58.911Z,0
2018-02-13T05:50:14.406Z,0
2018-02-13T05:51:29.322Z,0
2018-02-13T05:52:43.715Z,0
2018-02-13T05:53:58.386Z,0
2018-02-13T05:55:13.819Z,0
2018-02-13T05:56:29.025Z,0
2018-02-13T05:57:43.612Z,0
2018-02-13T05:58:58.547Z,0
2018-02-13T06:00:12.637Z,0
2018-02-13T06:01:27.663Z,0
2018-02-13T06:02:42.577Z,0
2018-02-13T06:03:57.288Z,0
2018-02-13T06:05:11.900Z,0
2018-02-13T06:06:27.322Z,0
2018-02-13T06:07:43.079Z,0
2018-02-13T06:08:58.316Z,0
2018-02-13T06:10:12.931Z,0
2018-02-13T06:11:27.790Z,0
2018-02-13T06:12:42.907Z,0
2018-02-13T06:13:57.880Z,0
2018-02-13T06:15:13.036Z,0
2018-02-13T06:16:27.938Z,0
2018-02-13T06:17:43.199Z,0
2018-02-13T06:19:24.828Z,0
2018-02-13T06:20:39.676Z,0
2018-02-13T06:22:51.784Z,0
2018-02-13T06:24:06.145Z,0
2018-02-13T06:25:21.867Z,0
2018-02-13T06:26:36.566Z,0
2018-02-13T06:27:51.206Z,0
2018-02-13T06:29:05.839Z,0
2018-02-13T06:30:20.237Z,0
2018-02-13T06:31:35.454Z,0
2018-02-13T06:32:50.326Z,0
2018-02-13T06:34:05.523Z,0
2018-02-13T06:35:19.986Z,0
2018-02-13T06:36:34.950Z,0
2018-02-13T06:37:50.632Z,0
2018-02-13T06:39:05.298Z,5
2018-02-13T06:40:19.719Z,5
2018-02-13T06:41:34.663Z,5
2018-02-13T06:42:48.811Z,5
2018-02-13T06:44:02.932Z,5
2018-02-13T06:45:17.698Z,5
2018-02-13T06:46:32.110Z,5
2018-02-13T06:47:47.010Z,5
2018-02-13T06:49:01.897Z,10
2018-02-13T06:50:17.326Z,10
2018-02-13T06:51:31.749Z,10
2018-02-13T06:52:46.392Z,10
2018-02-13T06:54:00.721Z,10
2018-02-13T06:55:15.795Z,10
2018-02-13T06:56:30.756Z,15
2018-02-13T06:57:45.350Z,15
2018-02-13T06:59:00.223Z,15
2018-02-13T07:00:14.763Z,15
2018-02-13T07:01:29.980Z,15
2018-02-13T07:02:44.592Z,20
2018-02-13T07:03:59.738Z,20
2018-02-13T07:05:14.072Z,20
2018-02-13T07:06:28.409Z,20
2018-02-13T07:07:43.902Z,20
2018-02-13T07:08:59.184Z,20
2018-02-13T07:10:14.332Z,25
2018-02-13T07:11:28.210Z,25
2018-02-13T07:12:42.887Z,25
2018-02-13T07:13:57.503Z,25
2018-02-13T07:15:12.236Z,25
2018-02-13T07:16:27.485Z,30
2018-02-13T07:17:42.074Z,30
2018-02-13T07:18:57.034Z,30
2018-02-13T07:20:11.380Z,30
2018-02-13T07:21:26.159Z,35
2018-02-13T07:22:41.463Z,35
2018-02-13T07:23:56.382Z,35
2018-02-13T07:26:18.100Z,35
2018-02-13T07:27:33.379Z,35
2018-02-13T07:28:48.616Z,35
2018-02-13T07:30:03.213Z,35
2018-02-13T07:31:17.803Z,40
2018-02-13T07:32:31.944Z,40
2018-02-13T07:33:46.868Z,40
2018-02-13T07:35:01.935Z,40
2018-02-13T07:36:16.657Z,40
2018-02-13T07:37:31.767Z,40
2018-02-13T07:38:46.625Z,45
2018-02-13T07:40:02.460Z,45
2018-02-13T07:41:17.713Z,45
2018-02-13T07:42:32.915Z,45
2018-02-13T07:43:47.515Z,45
2018-02-13T07:45:02.443Z,45
2018-02-13T07:46:17.618Z,45
2018-02-13T07:47:32.828Z,45
2018-02-13T07:48:47.134Z,50
2018-02-13T07:50:01.719Z,50
2018-02-13T07:51:16.330Z,50
2018-02-13T07:52:31.473Z,55
2018-02-13T07:53:46.116Z,60
2018-02-13T07:55:01.295Z,60
2018-02-13T07:56:16.263Z,60
2018-02-13T07:57:30.999Z,60
2018-02-13T07:58:45.680Z,60
2018-02-13T08:00:00.601Z,65
2018-02-13T08:01:15.285Z,65
2018-02-13T08:02:30.282Z,65
2018-02-13T08:03:45.965Z,70
2018-02-13T08:05:00.987Z,65
2018-02-13T08:06:16.146Z,65
2018-02-13T08:07:31.413Z,60
2018-02-13T08:08:46.318Z,60
2018-02-13T08:10:01.035Z,60
2018-02-13T08:11:15.796Z,60
2018-02-13T08:12:31.693Z,60
2018-02-13T08:13:46.603Z,65
2018-02-13T08:15:00.852Z,70
2018-02-13T08:16:15.963Z,70
2018-02-13T08:17:31.780Z,75
2018-02-13T08:18:47.233Z,80
2018-02-13T08:20:02.075Z,80
2018-02-13T08:21:17.332Z,80
2018-02-13T08:22:31.935Z,80
2018-02-13T08:23:46.878Z,85
2018-02-13T08:25:02.370Z,85
2018-02-13T08:26:16.783Z,80
2018-02-13T08:27:32.104Z,80
2018-02-13T08:28:46.823Z,85
2018-02-13T08:30:02.076Z,85
2018-02-13T08:31:16.272Z,85
2018-02-13T08:32:31.275Z,85
2018-02-13T08:33:45.710Z,80
2018-02-13T08:34:59.846Z,70
2018-02-13T08:36:14.766Z,65
2018-02-13T08:37:29.446Z,65
2018-02-13T08:38:44.662Z,60
2018-02-13T08:39:59.682Z,65
2018-02-13T08:41:14.362Z,70
2018-02-13T08:42:29.847Z,75
2018-02-13T08:43:44.564Z,70
2018-02-13T08:45:00.101Z,70
2018-02-13T08:46:14.821Z,80
2018-02-13T08:47:29.621Z,75
2018-02-13T08:48:45.123Z,80
2018-02-13T08:50:00.074Z,80
2018-02-13T08:51:15.697Z,85
2018-02-13T08:52:31.090Z,75
2018-02-13T08:53:45.472Z,75
2018-02-13T08:54:59.902Z,70
2018-02-13T08:56:14.504Z,70
2018-02-13T08:57:29.776Z,70
2018-02-13T08:58:44.395Z,70
2018-02-13T09:00:08.866Z,70
2018-02-13T09:01:23.590Z,70
2018-02-13T09:02:57.659Z,70
2018-02-13T09:04:12.322Z,70
2018-02-13T09:05:27.722Z,70
2018-02-13T09:06:42.718Z,70
2018-02-13T09:07:57.899Z,70
2018-02-13T09:09:12.636Z,70
2018-02-13T09:10:27.402Z,75
2018-02-13T09:11:42.741Z,85
2018-02-13T09:12:58.361Z,80
2018-02-13T09:14:13.891Z,85
2018-02-13T09:15:28.858Z,85
2018-02-13T09:16:43.997Z,85
2018-02-13T09:17:59.115Z,85
2018-02-13T09:19:14.349Z,85
2018-02-13T09:20:29.216Z,85
2018-02-13T09:21:44.788Z,85
2018-02-13T09:22:59.715Z,85
2018-02-13T09:24:14.158Z,85
2018-02-13T09:25:28.796Z,85
2018-02-13T09:26:43.486Z,85
2018-02-13T09:27:58.468Z,85
2018-02-13T09:29:13.474Z,85
2018-02-13T09:30:28.484Z,85
2018-02-13T09:31:43.475Z,85
2018-02-13T09:33:00.173Z,85
2018-02-13T09:34:14.659Z,85
2018-02-13T09:35:29.373Z,85
2018-02-13T09:36:44.305Z,85
2018-02-13T09:37:58.446Z,85
2018-02-13T09:39:12.864Z,85
2018-02-13T09:40:27.919Z,85
2018-02-13T09:41:42.000Z,90
2018-02-13T09:42:56.690Z,90
2018-02-13T09:44:11.024Z,90
2018-02-13T09:45:25.764Z,85
2018-02-13T09:46:40.532Z,85
2018-02-13T09:47:55.699Z,80
2018-02-13T09:49:10.928Z,85
2018-02-13T09:50:25.586Z,90
2018-02-13T09:51:40.566Z,90
2018-02-13T09:52:54.461Z,90
2018-02-13T09:54:09.229Z,90
2018-02-13T09:55:24.013Z,90
2018-02-13T09:56:38.969Z,90
2018-02-13T09:57:53.974Z,85
2018-02-13T09:59:09.380Z,85
2018-02-13T10:00:24.105Z,90
2018-02-13T10:01:38.503Z,85
2018-02-13T10:02:53.741Z,90
2018-02-13T10:04:08.232Z,90
2018-02-13T10:05:22.664Z,90
2018-02-13T10:06:37.345Z,90
2018-02-13T10:07:52.655Z,90
2018-02-13T10:09:07.598Z,95
2018-02-13T10:10:22.496Z,95
2018-02-13T10:11:36.635Z,95
2018-02-13T10:12:51.295Z,90
2018-02-13T10:14:06.884Z,95
2018-02-13T10:15:21.092Z,95
2018-02-13T10:16:35.993Z,95
2018-02-13T10:17:50.180Z,95
2018-02-13T10:19:05.246Z,90
2018-02-13T10:20:20.957Z,90
2018-02-13T10:21:34.862Z,90
2018-02-13T10:22:49.794Z,85
2018-02-13T10:24:06.295Z,90
2018-02-13T10:25:20.909Z,90
2018-02-13T10:26:36.196Z,90
2018-02-13T10:27:50.828Z,90
2018-02-13T10:29:05.569Z,90
2018-02-13T10:30:20.609Z,85
2018-02-13T10:31:35.019Z,90
2018-02-13T10:32:50.557Z,90
2018-02-13T10:34:05.402Z,90
2018-02-13T10:35:20.883Z,80
2018-02-13T10:36:35.472Z,90
2018-02-13T10:37:50.023Z,90
2018-02-13T10:39:05.907Z,90
2018-02-13T10:40:20.345Z,90
2018-02-13T10:41:35.250Z,90
2018-02-13T10:42:50.209Z,90
2018-02-13T10:44:05.700Z,90
2018-02-13T10:45:21.266Z,90
2018-02-13T10:46:36.066Z,90
2018-02-13T10:47:51.332Z,90
2018-02-13T10:49:06.189Z,90
2018-02-13T10:50:21.136Z,90
2018-02-13T10:51:36.651Z,90
2018-02-13T10:52:51.556Z,90
2018-02-13T10:54:06.999Z,90
2018-02-13T10:55:22.172Z,90
2018-02-13T10:56:37.136Z,90
2018-02-13T10:57:52.383Z,90
2018-02-13T10:59:07.696Z,90
2018-02-13T11:00:22.875Z,90
2018-02-13T11:01:37.792Z,90
2018-02-13T11:02:52.426Z,90
2018-02-13T11:04:07.752Z,90
2018-02-13T11:05:22.154Z,90
2018-02-13T11:06:37.119Z,90
2018-02-13T11:07:52.031Z,90
2018-02-13T11:09:32.503Z,90
2018-02-13T11:10:47.030Z,90
2018-02-13T11:12:01.903Z,90
2018-02-13T11:13:16.283Z,90
2018-02-13T11:14:31.381Z,90
2018-02-13T11:15:47.102Z,90
2018-02-13T11:17:02.304Z,90
2018-02-13T11:18:16.942Z,90
2018-02-13T11:19:31.679Z,90
2018-02-13T11:20:47.153Z,90
2018-02-13T11:22:01.932Z,90
2018-02-13T11:23:16.367Z,90
2018-02-13T11:24:31.208Z,90
2018-02-13T11:25:45.881Z,90
2018-02-13T11:27:00.619Z,100
2018-02-13T11:28:15.337Z,100
2018-02-13T11:29:30.842Z,95
2018-02-13T11:30:45.274Z,95
2018-02-13T11:32:00.062Z,95
2018-02-13T11:33:14.724Z,90
2018-02-13T11:34:29.925Z,95
2018-02-13T11:35:45.161Z,90
2018-02-13T11:36:59.530Z,95
2018-02-13T11:38:14.195Z,100
2018-02-13T11:39:28.923Z,110
2018-02-13T11:40:43.988Z,105
2018-02-13T11:41:58.907Z,100
2018-02-13T11:43:14.820Z,105
2018-02-13T11:44:29.976Z,105
2018-02-13T11:45:45.107Z,110
2018-02-13T11:47:00.112Z,115
2018-02-13T11:48:14.615Z,115
2018-02-13T11:49:29.312Z,115
2018-02-13T11:50:44.396Z,115
2018-02-13T11:51:58.505Z,110
2018-02-13T11:53:13.395Z,110
2018-02-13T11:54:28.328Z,120
2018-02-13T11:55:43.350Z,125
2018-02-13T11:56:58.763Z,130
2018-02-13T11:58:14.463Z,125
2018-02-13T11:59:29.908Z,125
2018-02-13T12:00:44.630Z,120
2018-02-13T12:01:59.618Z,120
2018-02-13T12:03:15.032Z,115
2018-02-13T12:04:29.733Z,115
2018-02-13T12:05:45.112Z,110
2018-02-13T12:07:00.132Z,110
2018-02-13T12:08:15.469Z,115
2018-02-13T12:09:30.175Z,115
2018-02-13T12:10:45.185Z,120
2018-02-13T12:12:00.157Z,125
2018-02-13T12:13:14.806Z,125
2018-02-13T12:14:29.801Z,125
2018-02-13T12:15:44.725Z,120
2018-02-13T12:16:58.874Z,125
2018-02-13T12:18:14.526Z,125
2018-02-13T12:19:29.227Z,125
2018-02-13T12:20:44.435Z,130
2018-02-13T12:21:59.390Z,145
2018-02-13T12:23:13.294Z,135
2018-02-13T12:24:28.642Z,135
2018-02-13T12:25:43.806Z,140
2018-02-13T12:26:58.476Z,135
2018-02-13T12:28:13.464Z,130
2018-02-13T12:29:27.301Z,125
2018-02-13T12:30:43.031Z,125
2018-02-13T12:31:58.277Z,130
2018-02-13T12:33:12.772Z,120
2018-02-13T12:34:27.713Z,125
2018-02-13T12:35:42.778Z,125
2018-02-13T12:36:58.052Z,125
2018-02-13T12:38:12.711Z,125
2018-02-13T12:39:27.000Z,115
2018-02-13T12:40:41.826Z,115
2018-02-13T12:41:57.340Z,120
2018-02-13T12:43:12.321Z,125
2018-02-13T12:44:26.177Z,125
2018-02-13T12:45:41.456Z,125
2018-02-13T12:46:56.944Z,125
2018-02-13T12:48:11.669Z,125
2018-02-13T12:49:26.395Z,125
2018-02-13T12:50:41.152Z,120
2018-02-13T12:51:55.861Z,120
2018-02-13T12:53:10.610Z,120
2018-02-13T12:54:25.315Z,120
2018-02-13T12:55:40.253Z,110
2018-02-13T12:56:54.589Z,105
2018-02-13T12:58:08.796Z,105
2018-02-13T12:59:23.778Z,110
2018-02-13T13:00:38.478Z,105
2018-02-13T13:01:53.175Z,100
2018-02-13T13:03:08.166Z,105
2018-02-13T13:04:23.640Z,100
2018-02-13T13:05:38.059Z,90
2018-02-13T13:06:52.976Z,90
2018-02-13T13:08:08.211Z,90
2018-02-13T13:09:23.491Z,95
2018-02-13T13:10:38.413Z,100
2018-02-13T13:11:53.417Z,105
2018-02-13T13:13:08.326Z,105
2018-02-13T13:14:24.547Z,100
2018-02-13T13:15:38.684Z,100
2018-02-13T13:16:53.538Z,95
2018-02-13T13:18:08.740Z,90
2018-02-13T13:19:23.574Z,90
2018-02-13T13:20:38.840Z,90
2018-02-13T13:21:53.292Z,85
2018-02-13T13:23:08.062Z,80
2018-02-13T13:24:22.798Z,80
2018-02-13T13:25:37.892Z,90
2018-02-13T13:26:53.700Z,90
2018-02-13T13:28:08.357Z,90
2018-02-13T13:29:22.519Z,90
2018-02-13T13:30:37.086Z,80
2018-02-13T13:31:51.871Z,85
2018-02-13T13:33:05.743Z,85
2018-02-13T13:34:20.150Z,90
2018-02-13T13:35:34.805Z,90
2018-02-13T13:36:49.827Z,80
2018-02-13T13:38:04.854Z,80
2018-02-13T13:39:19.819Z,90
2018-02-13T13:40:34.823Z,90
2018-02-13T13:41:49.717Z,90
2018-02-13T13:43:03.826Z,90
2018-02-13T13:44:18.769Z,90
2018-02-13T13:45:34.259Z,90
2018-02-13T13:46:48.659Z,90
2018-02-13T13:48:03.688Z,90
2018-02-13T13:49:18.098Z,90
2018-02-13T13:50:32.757Z,85
2018-02-13T13:51:47.123Z,90
2018-02-13T13:53:02.682Z,80
2018-02-13T13:54:17.649Z,80
2018-02-13T13:55:32.610Z,80
2018-02-13T13:56:46.993Z,80
2018-02-13T13:58:02.370Z,80
2018-02-13T13:59:16.493Z,85
2018-02-13T14:00:30.698Z,95
2018-02-13T14:01:45.882Z,95
2018-02-13T14:03:00.357Z,80
2018-02-13T14:04:15.343Z,90
2018-02-13T14:05:29.775Z,80
2018-02-13T14:06:44.727Z,85
2018-02-13T14:07:58.688Z,85
2018-02-13T14:09:13.432Z,85
2018-02-13T14:10:30.864Z,75
2018-02-13T14:12:36.986Z,85
2018-02-13T14:13:52.050Z,75
2018-02-13T14:15:06.728Z,75
2018-02-13T14:17:44.025Z,80
2018-02-13T14:18:59.737Z,80
2018-02-13T14:20:14.793Z,80
2018-02-13T14:21:29.813Z,80
2018-02-13T14:22:43.986Z,80
2018-02-13T14:23:59.234Z,80
2018-02-13T14:25:13.641Z,80
2018-02-13T14:26:29.145Z,80
2018-02-13T14:27:43.616Z,80
2018-02-13T14:28:58.706Z,80
2018-02-13T14:30:13.765Z,80
2018-02-13T14:31:29.181Z,80
2018-02-13T14:32:43.961Z,80
2018-02-13T14:33:58.472Z,75
2018-02-13T14:35:12.924Z,75
2018-02-13T14:36:28.778Z,75
2018-02-13T14:37:44.103Z,75
2018-02-13T14:38:59.463Z,75
2018-02-13T14:40:14.227Z,75
2018-02-13T14:41:29.274Z,75
2018-02-13T14:42:45.183Z,75
2018-02-13T14:43:59.744Z,75
2018-02-13T14:45:14.092Z,75
2018-02-13T14:46:28.821Z,75
2018-02-13T14:47:43.623Z,75
2018-02-13T14:48:59.046Z,75
2018-02-13T14:50:13.774Z,75
2018-02-13T14:51:28.543Z,75
2018-02-13T14:52:42.791Z,75
2018-02-13T14:53:58.763Z,75
2018-02-13T14:55:14.850Z,70
2018-02-13T14:56:30.667Z,70
2018-02-13T14:57:46.270Z,70
2018-02-13T14:59:02.507Z,70
2018-02-13T15:00:17.590Z,70
2018-02-13T15:01:32.734Z,70
2018-02-13T15:02:46.875Z,65
2018-02-13T15:04:01.105Z,65
2018-02-13T15:05:15.486Z,65
2018-02-13T15:06:30.752Z,65
2018-02-13T15:07:45.766Z,65
2018-02-13T15:09:00.334Z,65
2018-02-13T15:10:15.577Z,60
2018-02-13T15:15:53.788Z,60
2018-02-13T15:17:08.741Z,60
2018-02-13T15:18:23.957Z,60
2018-02-13T15:19:38.893Z,60
2018-02-13T15:20:53.713Z,55
2018-02-13T15:22:08.938Z,55
2018-02-13T15:23:23.747Z,55
2018-02-13T15:24:38.119Z,55
2018-02-13T15:25:52.486Z,55
2018-02-13T15:27:07.952Z,55
2018-02-13T15:28:23.261Z,55
2018-02-13T15:29:37.897Z,50
2018-02-13T15:30:52.115Z,50
2018-02-13T15:32:07.322Z,50
2018-02-13T15:33:22.080Z,50
2018-02-13T15:34:37.380Z,50
2018-02-13T15:35:52.153Z,50
2018-02-13T15:37:06.810Z,45
2018-02-13T15:38:21.841Z,45
2018-02-13T15:39:36.833Z,40
2018-02-13T15:40:52.325Z,40
2018-02-13T15:42:07.438Z,40
2018-02-13T15:43:22.205Z,45
2018-02-13T15:44:37.188Z,40
2018-02-13T15:45:52.680Z,40
2018-02-13T15:47:08.113Z,40
2018-02-13T15:48:22.772Z,40
2018-02-13T15:49:37.404Z,40
2018-02-13T15:50:52.532Z,40
2018-02-13T15:52:07.536Z,35
2018-02-13T15:53:23.155Z,35
2018-02-13T15:54:37.796Z,35
2018-02-13T15:55:52.602Z,35
2018-02-13T15:57:07.679Z,35
2018-02-13T15:58:22.680Z,30
2018-02-13T15:59:38.238Z,30
2018-02-13T16:00:53.343Z,30
2018-02-13T16:02:08.396Z,30
2018-02-13T16:03:23.456Z,30
2018-02-13T16:04:38.334Z,30
2018-02-13T16:05:53.028Z,25
2018-02-13T16:07:07.738Z,25
2018-02-13T16:08:23.290Z,25
2018-02-13T16:09:37.954Z,25
2018-02-13T16:10:52.663Z,20
2018-02-13T16:12:07.590Z,20
2018-02-13T16:13:22.243Z,20
2018-02-13T16:14:36.758Z,20
2018-02-13T16:15:52.150Z,20
2018-02-13T16:17:07.322Z,20
2018-02-13T16:18:22.341Z,15
2018-02-13T16:19:37.019Z,15
2018-02-13T16:20:52.038Z,15
2018-02-13T16:22:06.424Z,15
2018-02-13T16:23:21.133Z,15
2018-02-13T16:24:36.139Z,10
2018-02-13T16:25:50.831Z,10
2018-02-13T16:27:05.628Z,10
2018-02-13T16:28:20.213Z,10
2018-02-13T16:29:34.651Z,10
2018-02-13T16:30:50.004Z,5
2018-02-13T16:32:05.379Z,5
2018-02-13T16:33:19.850Z,5
2018-02-13T16:34:35.119Z,5
2018-02-13T16:35:49.806Z,5
2018-02-13T16:37:05.417Z,5
2018-02-13T16:38:20.683Z,5
2018-02-13T16:39:35.368Z,0
2018-02-13T16:40:50.814Z,0
2018-02-13T16:42:06.043Z,0
2018-02-13T16:43:21.053Z,0
2018-02-13T16:44:36.010Z,0
2018-02-13T16:45:50.452Z,0
2018-02-13T16:47:04.857Z,0
2018-02-13T16:48:18.981Z,0
2018-02-13T16:49:34.287Z,0
2018-02-13T16:50:49.212Z,0
2018-02-13T16:52:03.903Z,0
2018-02-13T16:53:18.941Z,0
2018-02-13T16:54:53.205Z,0
2018-02-13T16:56:07.432Z,0
2018-02-13T16:57:21.920Z,0
2018-02-13T16:58:36.869Z,0
2018-02-13T16:59:51.235Z,0
2018-02-13T17:01:06.802Z,0
2018-02-13T17:02:21.935Z,0
2018-02-13T17:03:36.882Z,0
2018-02-13T17:04:51.877Z,0
2018-02-13T17:06:06.487Z,0
2018-02-13T17:07:22.445Z,0
2018-02-13T17:08:37.431Z,0
2018-02-13T17:09:52.040Z,0
2018-02-13T17:11:07.024Z,0
2018-02-13T19:10:09.805Z,0
2018-02-13T19:11:24.463Z,0
2018-02-13T19:12:39.735Z,0
2018-02-13T19:13:54.830Z,0
2018-02-13T19:15:10.350Z,0
2018-02-13T19:16:24.766Z,0
2018-02-13T19:17:39.728Z,0
2018-02-13T19:18:55.040Z,0
2018-02-13T19:20:10.229Z,0
2018-02-13T19:21:25.174Z,0
2018-02-13T19:22:40.681Z,0
2018-02-13T19:23:55.643Z,0
2018-02-13T19:25:10.631Z,0
2018-02-13T19:26:25.098Z,0
2018-02-13T19:27:40.045Z,0
2018-02-13T19:28:55.153Z,0
2018-02-13T19:30:10.500Z,0
2018-02-13T19:31:24.616Z,0
2018-02-13T19:32:39.484Z,0
2018-02-13T19:33:53.988Z,0
2018-02-13T19:40:24.109Z,0
2018-02-13T19:41:38.992Z,0
2018-02-13T19:42:53.635Z,0
2018-02-13T19:44:08.262Z,0
2018-02-13T19:45:23.296Z,0
2018-02-13T19:46:38.246Z,0
2018-02-13T19:47:53.304Z,0
2018-02-13T19:49:08.667Z,0
2018-02-13T19:50:23.497Z,0
2018-02-13T19:51:38.593Z,0
2018-02-13T19:52:54.048Z,0
2018-02-13T19:54:08.480Z,0
2018-02-13T19:55:24.533Z,0
2018-02-13T19:56:40.608Z,0
2018-02-13T19:57:55.898Z,0
2018-02-13T19:59:11.468Z,0
2018-02-13T20:00:26.515Z,0
2018-02-13T20:01:40.657Z,0
2018-02-13T20:03:01.692Z,0
2018-02-13T20:04:16.526Z,0
2018-02-13T20:05:31.343Z,0
2018-02-13T20:06:46.326Z,0
2018-02-13T20:08:01.990Z,0
2018-02-13T20:09:17.000Z,0
2018-02-13T20:10:32.194Z,0
2018-02-13T20:11:46.986Z,0
2018-02-13T20:13:01.738Z,0
2018-02-13T20:14:15.955Z,0
2018-02-13T20:15:31.156Z,0
2018-02-13T20:16:45.905Z,0